sensor_id;sensor_type;location;lat;lon;timestamp;P1;durP1;ratioP1;P2;durP2;ratioP2
71626;SDS011;59475;52.464;13.590;2023-05-10T00:01:51;8.13;;;4.73;;
71626;SDS011;59475;52.464;13.590;2023-05-10T00:04:17;6.43;;;5.03;;
71626;SDS011;59475;52.464;13.590;2023-05-10T00:06:42;7.43;;;5.20;;
71626;SDS011;59475;52.464;13.590;2023-05-10T00:09:07;8.47;;;5.30;;
71626;SDS011;59475;52.464;13.590;2023-05-10T00:11:33;5.90;;;4.93;;
71626;SDS011;59475;52.464;13.590;2023-05-10T00:13:58;7.10;;;5.20;;
71626;SDS011;59475;52.464;13.590;2023-05-10T00:16:24;9.70;;;5.63;;
71626;SDS011;59475;52.464;13.590;2023-05-10T00:18:49;10.60;;;5.20;;
71626;SDS011;59475;52.464;13.590;2023-05-10T00:21:14;8.03;;;5.70;;
71626;SDS011;59475;52.464;13.590;2023-05-10T00:23:40;5.82;;;4.80;;
71626;SDS011;59475;52.464;13.590;2023-05-10T00:26:05;10.37;;;4.70;;
71626;SDS011;59475;52.464;13.590;2023-05-10T00:28:30;7.77;;;5.20;;
71626;SDS011;59475;52.464;13.590;2023-05-10T00:30:57;8.23;;;5.33;;
71626;SDS011;59475;52.464;13.590;2023-05-10T00:33:22;8.30;;;5.03;;
71626;SDS011;59475;52.464;13.590;2023-05-10T00:35:48;6.90;;;4.87;;
71626;SDS011;59475;52.464;13.590;2023-05-10T00:38:13;6.80;;;4.73;;
71626;SDS011;59475;52.464;13.590;2023-05-10T00:40:39;8.05;;;4.80;;
71626;SDS011;59475;52.464;13.590;2023-05-10T00:43:05;8.32;;;4.82;;
71626;SDS011;59475;52.464;13.590;2023-05-10T00:45:31;6.83;;;4.60;;
71626;SDS011;59475;52.464;13.590;2023-05-10T00:47:58;6.10;;;4.82;;
71626;SDS011;59475;52.464;13.590;2023-05-10T00:50:26;6.72;;;4.93;;
71626;SDS011;59475;52.464;13.590;2023-05-10T00:52:51;7.17;;;5.10;;
71626;SDS011;59475;52.464;13.590;2023-05-10T00:55:17;6.97;;;5.00;;
71626;SDS011;59475;52.464;13.590;2023-05-10T00:57:43;8.70;;;5.53;;
71626;SDS011;59475;52.464;13.590;2023-05-10T01:00:08;7.23;;;5.83;;
71626;SDS011;59475;52.464;13.590;2023-05-10T01:02:34;6.03;;;4.72;;
71626;SDS011;59475;52.464;13.590;2023-05-10T01:05:00;6.88;;;4.75;;
71626;SDS011;59475;52.464;13.590;2023-05-10T01:07:27;6.60;;;4.70;;
71626;SDS011;59475;52.464;13.590;2023-05-10T01:09:52;5.87;;;4.73;;
71626;SDS011;59475;52.464;13.590;2023-05-10T01:12:18;8.73;;;4.97;;
71626;SDS011;59475;52.464;13.590;2023-05-10T01:14:43;8.17;;;4.93;;
71626;SDS011;59475;52.464;13.590;2023-05-10T01:17:08;7.30;;;4.90;;
71626;SDS011;59475;52.464;13.590;2023-05-10T01:19:37;9.43;;;5.18;;
71626;SDS011;59475;52.464;13.590;2023-05-10T01:33:00;8.27;;;5.32;;
71626;SDS011;59475;52.464;13.590;2023-05-10T01:38:13;6.38;;;4.40;;
71626;SDS011;59475;52.464;13.590;2023-05-10T01:40:48;6.23;;;5.00;;
71626;SDS011;59475;52.464;13.590;2023-05-10T01:43:28;7.97;;;4.88;;
71626;SDS011;59475;52.464;13.590;2023-05-10T01:48:41;8.65;;;5.03;;
71626;SDS011;59475;52.464;13.590;2023-05-10T01:51:16;7.93;;;5.25;;
71626;SDS011;59475;52.464;13.590;2023-05-10T01:53:46;10.17;;;4.60;;
71626;SDS011;59475;52.464;13.590;2023-05-10T01:56:13;8.82;;;5.75;;
71626;SDS011;59475;52.464;13.590;2023-05-10T01:58:40;7.78;;;5.20;;
71626;SDS011;59475;52.464;13.590;2023-05-10T02:01:10;7.72;;;4.75;;
71626;SDS011;59475;52.464;13.590;2023-05-10T02:03:37;6.82;;;5.00;;
71626;SDS011;59475;52.464;13.590;2023-05-10T02:06:03;8.60;;;4.83;;
71626;SDS011;59475;52.464;13.590;2023-05-10T02:08:30;7.45;;;4.97;;
71626;SDS011;59475;52.464;13.590;2023-05-10T02:10:57;7.43;;;5.15;;
71626;SDS011;59475;52.464;13.590;2023-05-10T02:13:24;8.45;;;5.32;;
71626;SDS011;59475;52.464;13.590;2023-05-10T02:15:51;5.85;;;4.55;;
71626;SDS011;59475;52.464;13.590;2023-05-10T02:18:18;6.27;;;4.53;;
71626;SDS011;59475;52.464;13.590;2023-05-10T02:20:45;7.32;;;4.88;;
71626;SDS011;59475;52.464;13.590;2023-05-10T02:23:11;7.90;;;4.78;;
71626;SDS011;59475;52.464;13.590;2023-05-10T02:25:38;7.93;;;5.13;;
71626;SDS011;59475;52.464;13.590;2023-05-10T02:28:04;6.80;;;4.72;;
71626;SDS011;59475;52.464;13.590;2023-05-10T02:30:32;8.60;;;5.05;;
71626;SDS011;59475;52.464;13.590;2023-05-10T02:32:58;6.80;;;4.55;;
71626;SDS011;59475;52.464;13.590;2023-05-10T02:35:26;8.52;;;5.45;;
71626;SDS011;59475;52.464;13.590;2023-05-10T02:37:52;7.40;;;4.50;;
71626;SDS011;59475;52.464;13.590;2023-05-10T02:40:18;8.75;;;4.63;;
71626;SDS011;59475;52.464;13.590;2023-05-10T02:42:44;5.75;;;5.10;;
71626;SDS011;59475;52.464;13.590;2023-05-10T02:45:13;6.40;;;4.68;;
71626;SDS011;59475;52.464;13.590;2023-05-10T02:47:48;7.57;;;4.63;;
71626;SDS011;59475;52.464;13.590;2023-05-10T02:50:13;6.10;;;4.77;;
71626;SDS011;59475;52.464;13.590;2023-05-10T02:52:40;8.23;;;5.55;;
71626;SDS011;59475;52.464;13.590;2023-05-10T02:55:11;8.87;;;5.10;;
71626;SDS011;59475;52.464;13.590;2023-05-10T02:57:41;7.05;;;4.90;;
71626;SDS011;59475;52.464;13.590;2023-05-10T03:00:10;6.05;;;4.80;;
71626;SDS011;59475;52.464;13.590;2023-05-10T03:02:36;5.95;;;4.10;;
71626;SDS011;59475;52.464;13.590;2023-05-10T03:05:01;7.90;;;4.90;;
71626;SDS011;59475;52.464;13.590;2023-05-10T03:07:27;6.20;;;4.35;;
71626;SDS011;59475;52.464;13.590;2023-05-10T03:09:53;6.17;;;4.77;;
71626;SDS011;59475;52.464;13.590;2023-05-10T03:21:49;5.93;;;4.68;;
71626;SDS011;59475;52.464;13.590;2023-05-10T03:24:18;5.93;;;4.43;;
71626;SDS011;59475;52.464;13.590;2023-05-10T03:26:46;6.03;;;4.40;;
71626;SDS011;59475;52.464;13.590;2023-05-10T03:29:13;7.25;;;4.60;;
71626;SDS011;59475;52.464;13.590;2023-05-10T03:31:40;7.05;;;4.97;;
71626;SDS011;59475;52.464;13.590;2023-05-10T03:34:06;8.67;;;4.50;;
71626;SDS011;59475;52.464;13.590;2023-05-10T03:36:31;6.93;;;4.40;;
71626;SDS011;59475;52.464;13.590;2023-05-10T03:38:57;6.55;;;4.50;;
71626;SDS011;59475;52.464;13.590;2023-05-10T03:41:23;5.90;;;4.70;;
71626;SDS011;59475;52.464;13.590;2023-05-10T03:43:48;6.50;;;4.30;;
71626;SDS011;59475;52.464;13.590;2023-05-10T03:46:13;6.87;;;4.03;;
71626;SDS011;59475;52.464;13.590;2023-05-10T03:48:39;6.95;;;4.43;;
71626;SDS011;59475;52.464;13.590;2023-05-10T03:51:04;6.33;;;4.27;;
71626;SDS011;59475;52.464;13.590;2023-05-10T03:53:30;9.40;;;4.80;;
71626;SDS011;59475;52.464;13.590;2023-05-10T03:55:55;11.80;;;4.67;;
71626;SDS011;59475;52.464;13.590;2023-05-10T03:58:20;7.88;;;4.47;;
71626;SDS011;59475;52.464;13.590;2023-05-10T04:00:46;5.60;;;3.93;;
71626;SDS011;59475;52.464;13.590;2023-05-10T04:03:12;7.80;;;4.70;;
71626;SDS011;59475;52.464;13.590;2023-05-10T04:05:37;6.03;;;4.40;;
71626;SDS011;59475;52.464;13.590;2023-05-10T04:08:03;7.30;;;4.30;;
71626;SDS011;59475;52.464;13.590;2023-05-10T04:10:29;12.43;;;4.20;;
71626;SDS011;59475;52.464;13.590;2023-05-10T04:12:54;8.48;;;4.50;;
71626;SDS011;59475;52.464;13.590;2023-05-10T04:15:20;8.93;;;4.60;;
71626;SDS011;59475;52.464;13.590;2023-05-10T04:17:45;10.53;;;4.37;;
71626;SDS011;59475;52.464;13.590;2023-05-10T04:20:11;5.75;;;4.30;;
71626;SDS011;59475;52.464;13.590;2023-05-10T04:22:37;6.00;;;4.47;;
71626;SDS011;59475;52.464;13.590;2023-05-10T04:25:03;6.82;;;4.13;;
71626;SDS011;59475;52.464;13.590;2023-05-10T04:27:29;7.30;;;4.45;;
71626;SDS011;59475;52.464;13.590;2023-05-10T04:29:55;6.53;;;4.20;;
71626;SDS011;59475;52.464;13.590;2023-05-10T04:32:20;6.50;;;4.10;;
71626;SDS011;59475;52.464;13.590;2023-05-10T04:34:46;5.40;;;4.33;;
71626;SDS011;59475;52.464;13.590;2023-05-10T04:37:11;6.38;;;4.30;;
71626;SDS011;59475;52.464;13.590;2023-05-10T04:39:37;7.43;;;3.87;;
71626;SDS011;59475;52.464;13.590;2023-05-10T04:42:02;6.67;;;4.17;;
71626;SDS011;59475;52.464;13.590;2023-05-10T04:44:28;5.57;;;4.13;;
71626;SDS011;59475;52.464;13.590;2023-05-10T04:46:54;7.65;;;4.20;;
71626;SDS011;59475;52.464;13.590;2023-05-10T04:49:19;7.43;;;4.60;;
71626;SDS011;59475;52.464;13.590;2023-05-10T04:51:45;7.47;;;4.20;;
71626;SDS011;59475;52.464;13.590;2023-05-10T04:54:11;5.68;;;3.90;;
71626;SDS011;59475;52.464;13.590;2023-05-10T04:56:36;6.13;;;4.07;;
71626;SDS011;59475;52.464;13.590;2023-05-10T04:59:01;5.10;;;3.90;;
71626;SDS011;59475;52.464;13.590;2023-05-10T05:01:27;7.45;;;3.83;;
71626;SDS011;59475;52.464;13.590;2023-05-10T05:03:52;9.03;;;4.40;;
71626;SDS011;59475;52.464;13.590;2023-05-10T05:06:18;6.50;;;4.13;;
71626;SDS011;59475;52.464;13.590;2023-05-10T05:08:43;6.57;;;4.03;;
71626;SDS011;59475;52.464;13.590;2023-05-10T05:11:09;5.30;;;3.67;;
71626;SDS011;59475;52.464;13.590;2023-05-10T05:13:34;7.17;;;3.80;;
71626;SDS011;59475;52.464;13.590;2023-05-10T05:16:00;7.00;;;4.30;;
71626;SDS011;59475;52.464;13.590;2023-05-10T05:18:27;5.90;;;3.88;;
71626;SDS011;59475;52.464;13.590;2023-05-10T05:20:53;6.78;;;3.67;;
71626;SDS011;59475;52.464;13.590;2023-05-10T05:23:18;6.20;;;3.70;;
71626;SDS011;59475;52.464;13.590;2023-05-10T05:25:45;10.82;;;3.80;;
71626;SDS011;59475;52.464;13.590;2023-05-10T05:28:11;3.77;;;3.37;;
71626;SDS011;59475;52.464;13.590;2023-05-10T05:30:36;6.07;;;3.50;;
71626;SDS011;59475;52.464;13.590;2023-05-10T05:33:02;8.13;;;3.90;;
71626;SDS011;59475;52.464;13.590;2023-05-10T05:35:28;5.70;;;3.50;;
71626;SDS011;59475;52.464;13.590;2023-05-10T05:37:53;7.90;;;3.63;;
71626;SDS011;59475;52.464;13.590;2023-05-10T05:40:19;3.97;;;2.97;;
71626;SDS011;59475;52.464;13.590;2023-05-10T05:42:45;4.55;;;3.22;;
71626;SDS011;59475;52.464;13.590;2023-05-10T05:45:11;4.37;;;3.37;;
71626;SDS011;59475;52.464;13.590;2023-05-10T05:47:38;4.82;;;3.50;;
71626;SDS011;59475;52.464;13.590;2023-05-10T05:50:04;4.30;;;3.30;;
71626;SDS011;59475;52.464;13.590;2023-05-10T05:52:31;4.40;;;3.10;;
71626;SDS011;59475;52.464;13.590;2023-05-10T05:54:56;6.07;;;2.80;;
71626;SDS011;59475;52.464;13.590;2023-05-10T05:57:22;9.67;;;2.63;;
71626;SDS011;59475;52.464;13.590;2023-05-10T05:59:47;7.80;;;2.90;;
71626;SDS011;59475;52.464;13.590;2023-05-10T06:02:13;4.93;;;2.97;;
71626;SDS011;59475;52.464;13.590;2023-05-10T06:04:38;4.57;;;3.00;;
71626;SDS011;59475;52.464;13.590;2023-05-10T06:07:04;4.67;;;2.90;;
71626;SDS011;59475;52.464;13.590;2023-05-10T06:09:29;5.32;;;2.50;;
71626;SDS011;59475;52.464;13.590;2023-05-10T06:11:55;5.60;;;2.93;;
71626;SDS011;59475;52.464;13.590;2023-05-10T06:14:21;4.40;;;2.47;;
71626;SDS011;59475;52.464;13.590;2023-05-10T06:16:46;4.30;;;2.63;;
71626;SDS011;59475;52.464;13.590;2023-05-10T06:19:12;4.53;;;2.73;;
71626;SDS011;59475;52.464;13.590;2023-05-10T06:21:37;3.47;;;2.70;;
71626;SDS011;59475;52.464;13.590;2023-05-10T06:24:03;4.70;;;2.25;;
71626;SDS011;59475;52.464;13.590;2023-05-10T06:26:28;3.43;;;2.40;;
71626;SDS011;59475;52.464;13.590;2023-05-10T06:28:54;3.92;;;2.58;;
71626;SDS011;59475;52.464;13.590;2023-05-10T06:31:19;4.37;;;2.60;;
71626;SDS011;59475;52.464;13.590;2023-05-10T06:33:45;3.78;;;2.25;;
71626;SDS011;59475;52.464;13.590;2023-05-10T06:36:11;3.07;;;2.73;;
71626;SDS011;59475;52.464;13.590;2023-05-10T06:38:36;6.13;;;2.60;;
71626;SDS011;59475;52.464;13.590;2023-05-10T06:41:02;4.03;;;2.70;;
71626;SDS011;59475;52.464;13.590;2023-05-10T06:43:28;4.97;;;2.47;;
71626;SDS011;59475;52.464;13.590;2023-05-10T06:45:53;3.00;;;2.20;;
71626;SDS011;59475;52.464;13.590;2023-05-10T06:48:19;4.60;;;2.30;;
71626;SDS011;59475;52.464;13.590;2023-05-10T06:50:44;4.60;;;2.83;;
71626;SDS011;59475;52.464;13.590;2023-05-10T06:53:10;2.92;;;2.30;;
71626;SDS011;59475;52.464;13.590;2023-05-10T06:55:36;3.23;;;2.50;;
71626;SDS011;59475;52.464;13.590;2023-05-10T06:58:02;4.38;;;2.65;;
71626;SDS011;59475;52.464;13.590;2023-05-10T07:00:27;3.20;;;2.80;;
71626;SDS011;59475;52.464;13.590;2023-05-10T07:02:52;3.17;;;2.47;;
71626;SDS011;59475;52.464;13.590;2023-05-10T07:05:18;5.23;;;2.50;;
71626;SDS011;59475;52.464;13.590;2023-05-10T07:07:43;5.10;;;2.50;;
71626;SDS011;59475;52.464;13.590;2023-05-10T07:10:09;8.40;;;1.90;;
71626;SDS011;59475;52.464;13.590;2023-05-10T07:12:34;2.97;;;2.00;;
71626;SDS011;59475;52.464;13.590;2023-05-10T07:15:00;5.00;;;3.22;;
71626;SDS011;59475;52.464;13.590;2023-05-10T07:17:25;3.30;;;1.83;;
71626;SDS011;59475;52.464;13.590;2023-05-10T07:19:51;5.63;;;2.77;;
71626;SDS011;59475;52.464;13.590;2023-05-10T07:22:16;4.00;;;2.17;;
71626;SDS011;59475;52.464;13.590;2023-05-10T07:24:42;4.50;;;2.57;;
71626;SDS011;59475;52.464;13.590;2023-05-10T07:27:08;9.70;;;2.60;;
71626;SDS011;59475;52.464;13.590;2023-05-10T07:29:34;3.20;;;2.40;;
71626;SDS011;59475;52.464;13.590;2023-05-10T07:31:59;4.40;;;2.20;;
71626;SDS011;59475;52.464;13.590;2023-05-10T07:34:26;4.65;;;2.65;;
71626;SDS011;59475;52.464;13.590;2023-05-10T07:36:51;6.77;;;2.77;;
71626;SDS011;59475;52.464;13.590;2023-05-10T07:39:17;3.88;;;2.42;;
71626;SDS011;59475;52.464;13.590;2023-05-10T07:41:42;2.87;;;2.07;;
71626;SDS011;59475;52.464;13.590;2023-05-10T07:44:08;2.78;;;1.98;;
71626;SDS011;59475;52.464;13.590;2023-05-10T07:46:33;3.30;;;2.53;;
71626;SDS011;59475;52.464;13.590;2023-05-10T07:48:59;4.83;;;2.40;;
71626;SDS011;59475;52.464;13.590;2023-05-10T07:51:24;6.83;;;2.50;;
71626;SDS011;59475;52.464;13.590;2023-05-10T07:53:49;4.53;;;2.30;;
71626;SDS011;59475;52.464;13.590;2023-05-10T07:56:28;3.47;;;2.72;;
71626;SDS011;59475;52.464;13.590;2023-05-10T07:58:55;5.93;;;2.60;;
71626;SDS011;59475;52.464;13.590;2023-05-10T08:01:20;2.95;;;2.30;;
71626;SDS011;59475;52.464;13.590;2023-05-10T08:03:46;4.93;;;3.00;;
71626;SDS011;59475;52.464;13.590;2023-05-10T08:06:11;4.13;;;2.00;;
71626;SDS011;59475;52.464;13.590;2023-05-10T08:08:37;4.40;;;2.53;;
71626;SDS011;59475;52.464;13.590;2023-05-10T08:11:03;3.00;;;2.40;;
71626;SDS011;59475;52.464;13.590;2023-05-10T08:13:30;3.33;;;1.90;;
71626;SDS011;59475;52.464;13.590;2023-05-10T08:15:56;3.28;;;2.45;;
71626;SDS011;59475;52.464;13.590;2023-05-10T08:18:21;4.30;;;2.50;;
71626;SDS011;59475;52.464;13.590;2023-05-10T08:20:47;4.93;;;2.60;;
71626;SDS011;59475;52.464;13.590;2023-05-10T08:23:12;4.27;;;2.13;;
71626;SDS011;59475;52.464;13.590;2023-05-10T08:25:38;3.10;;;2.57;;
71626;SDS011;59475;52.464;13.590;2023-05-10T08:28:03;3.75;;;2.42;;
71626;SDS011;59475;52.464;13.590;2023-05-10T08:30:29;3.40;;;2.67;;
71626;SDS011;59475;52.464;13.590;2023-05-10T08:32:54;3.93;;;2.37;;
71626;SDS011;59475;52.464;13.590;2023-05-10T08:35:20;3.20;;;2.20;;
71626;SDS011;59475;52.464;13.590;2023-05-10T08:37:45;3.60;;;2.23;;
71626;SDS011;59475;52.464;13.590;2023-05-10T08:40:11;3.20;;;2.63;;
71626;SDS011;59475;52.464;13.590;2023-05-10T08:42:37;2.42;;;2.10;;
71626;SDS011;59475;52.464;13.590;2023-05-10T08:45:07;5.30;;;2.20;;
71626;SDS011;59475;52.464;13.590;2023-05-10T08:47:33;4.57;;;2.38;;
71626;SDS011;59475;52.464;13.590;2023-05-10T08:50:01;2.88;;;2.25;;
71626;SDS011;59475;52.464;13.590;2023-05-10T08:52:27;3.65;;;2.42;;
71626;SDS011;59475;52.464;13.590;2023-05-10T08:54:55;5.53;;;2.22;;
71626;SDS011;59475;52.464;13.590;2023-05-10T08:57:21;4.83;;;2.07;;
71626;SDS011;59475;52.464;13.590;2023-05-10T08:59:47;3.40;;;2.60;;
71626;SDS011;59475;52.464;13.590;2023-05-10T09:02:12;2.63;;;1.83;;
71626;SDS011;59475;52.464;13.590;2023-05-10T09:04:38;6.47;;;2.28;;
71626;SDS011;59475;52.464;13.590;2023-05-10T09:07:04;3.27;;;2.30;;
71626;SDS011;59475;52.464;13.590;2023-05-10T09:09:31;2.75;;;1.95;;
71626;SDS011;59475;52.464;13.590;2023-05-10T09:11:57;3.33;;;2.30;;
71626;SDS011;59475;52.464;13.590;2023-05-10T09:14:23;4.73;;;2.60;;
71626;SDS011;59475;52.464;13.590;2023-05-10T09:16:49;2.60;;;2.28;;
71626;SDS011;59475;52.464;13.590;2023-05-10T09:19:15;3.57;;;2.07;;
71626;SDS011;59475;52.464;13.590;2023-05-10T09:21:40;3.93;;;2.30;;
71626;SDS011;59475;52.464;13.590;2023-05-10T09:24:06;5.25;;;2.60;;
71626;SDS011;59475;52.464;13.590;2023-05-10T09:26:33;4.07;;;2.23;;
71626;SDS011;59475;52.464;13.590;2023-05-10T09:29:00;3.72;;;2.35;;
71626;SDS011;59475;52.464;13.590;2023-05-10T09:31:43;4.00;;;2.33;;
71626;SDS011;59475;52.464;13.590;2023-05-10T09:34:08;4.05;;;2.50;;
71626;SDS011;59475;52.464;13.590;2023-05-10T09:36:34;3.37;;;2.30;;
71626;SDS011;59475;52.464;13.590;2023-05-10T09:38:59;3.57;;;2.40;;
71626;SDS011;59475;52.464;13.590;2023-05-10T09:41:25;4.60;;;2.37;;
71626;SDS011;59475;52.464;13.590;2023-05-10T09:43:50;5.13;;;2.53;;
71626;SDS011;59475;52.464;13.590;2023-05-10T09:46:20;3.63;;;2.38;;
71626;SDS011;59475;52.464;13.590;2023-05-10T09:48:47;2.37;;;2.10;;
71626;SDS011;59475;52.464;13.590;2023-05-10T09:53:45;4.22;;;2.40;;
71626;SDS011;59475;52.464;13.590;2023-05-10T09:56:11;3.80;;;2.13;;
71626;SDS011;59475;52.464;13.590;2023-05-10T09:58:36;5.13;;;2.10;;
71626;SDS011;59475;52.464;13.590;2023-05-10T10:01:10;2.50;;;2.10;;
71626;SDS011;59475;52.464;13.590;2023-05-10T10:03:40;3.55;;;2.08;;
71626;SDS011;59475;52.464;13.590;2023-05-10T10:06:07;3.35;;;2.38;;
71626;SDS011;59475;52.464;13.590;2023-05-10T10:08:33;3.25;;;1.92;;
71626;SDS011;59475;52.464;13.590;2023-05-10T10:10:59;3.33;;;2.17;;
71626;SDS011;59475;52.464;13.590;2023-05-10T10:13:24;2.67;;;2.20;;
71626;SDS011;59475;52.464;13.590;2023-05-10T10:15:50;4.40;;;2.63;;
71626;SDS011;59475;52.464;13.590;2023-05-10T10:18:17;3.72;;;2.15;;
71626;SDS011;59475;52.464;13.590;2023-05-10T10:20:42;4.68;;;2.30;;
71626;SDS011;59475;52.464;13.590;2023-05-10T10:23:08;2.90;;;2.20;;
71626;SDS011;59475;52.464;13.590;2023-05-10T10:25:34;3.97;;;2.20;;
71626;SDS011;59475;52.464;13.590;2023-05-10T10:28:09;2.85;;;2.20;;
71626;SDS011;59475;52.464;13.590;2023-05-10T10:30:47;3.00;;;2.28;;
71626;SDS011;59475;52.464;13.590;2023-05-10T10:33:28;4.43;;;2.10;;
71626;SDS011;59475;52.464;13.590;2023-05-10T10:35:55;6.78;;;2.13;;
71626;SDS011;59475;52.464;13.590;2023-05-10T10:38:23;2.35;;;2.00;;
71626;SDS011;59475;52.464;13.590;2023-05-10T10:40:54;6.57;;;2.28;;
71626;SDS011;59475;52.464;13.590;2023-05-10T10:43:27;6.07;;;2.20;;
71626;SDS011;59475;52.464;13.590;2023-05-10T10:48:47;5.55;;;2.40;;
71626;SDS011;59475;52.464;13.590;2023-05-10T10:51:13;3.58;;;2.25;;
71626;SDS011;59475;52.464;13.590;2023-05-10T10:53:39;4.32;;;2.08;;
71626;SDS011;59475;52.464;13.590;2023-05-10T10:56:15;3.70;;;2.10;;
71626;SDS011;59475;52.464;13.590;2023-05-10T10:58:40;4.95;;;2.30;;
71626;SDS011;59475;52.464;13.590;2023-05-10T11:03:37;4.75;;;2.17;;
71626;SDS011;59475;52.464;13.590;2023-05-10T11:06:03;4.57;;;2.63;;
71626;SDS011;59475;52.464;13.590;2023-05-10T11:08:29;2.93;;;2.30;;
71626;SDS011;59475;52.464;13.590;2023-05-10T11:16:13;4.13;;;2.00;;
71626;SDS011;59475;52.464;13.590;2023-05-10T11:18:39;4.28;;;2.40;;
71626;SDS011;59475;52.464;13.590;2023-05-10T11:21:04;6.53;;;2.23;;
71626;SDS011;59475;52.464;13.590;2023-05-10T11:26:14;8.77;;;2.83;;
71626;SDS011;59475;52.464;13.590;2023-05-10T11:31:16;6.53;;;1.92;;
71626;SDS011;59475;52.464;13.590;2023-05-10T11:33:45;7.70;;;2.30;;
71626;SDS011;59475;52.464;13.590;2023-05-10T11:36:23;10.80;;;2.58;;
71626;SDS011;59475;52.464;13.590;2023-05-10T11:38:50;4.57;;;2.00;;
71626;SDS011;59475;52.464;13.590;2023-05-10T11:41:17;5.03;;;1.87;;
71626;SDS011;59475;52.464;13.590;2023-05-10T11:43:45;6.85;;;1.90;;
71626;SDS011;59475;52.464;13.590;2023-05-10T11:46:12;4.00;;;2.05;;
71626;SDS011;59475;52.464;13.590;2023-05-10T11:48:38;5.45;;;1.90;;
71626;SDS011;59475;52.464;13.590;2023-05-10T11:51:05;4.70;;;1.90;;
71626;SDS011;59475;52.464;13.590;2023-05-10T11:53:32;6.27;;;2.43;;
71626;SDS011;59475;52.464;13.590;2023-05-10T11:56:04;5.90;;;2.10;;
71626;SDS011;59475;52.464;13.590;2023-05-10T11:58:31;4.85;;;1.90;;
71626;SDS011;59475;52.464;13.590;2023-05-10T12:00:58;3.72;;;2.17;;
71626;SDS011;59475;52.464;13.590;2023-05-10T12:03:24;4.10;;;2.33;;
71626;SDS011;59475;52.464;13.590;2023-05-10T12:05:50;6.30;;;1.90;;
71626;SDS011;59475;52.464;13.590;2023-05-10T12:08:19;5.83;;;1.80;;
71626;SDS011;59475;52.464;13.590;2023-05-10T12:10:46;3.92;;;2.08;;
71626;SDS011;59475;52.464;13.590;2023-05-10T12:13:12;6.50;;;1.90;;
71626;SDS011;59475;52.464;13.590;2023-05-10T12:15:39;6.22;;;2.00;;
71626;SDS011;59475;52.464;13.590;2023-05-10T12:18:04;4.60;;;1.90;;
71626;SDS011;59475;52.464;13.590;2023-05-10T12:20:30;6.67;;;1.40;;
71626;SDS011;59475;52.464;13.590;2023-05-10T12:22:57;5.93;;;1.88;;
71626;SDS011;59475;52.464;13.590;2023-05-10T12:25:32;4.25;;;1.90;;
71626;SDS011;59475;52.464;13.590;2023-05-10T12:27:59;2.85;;;2.17;;
71626;SDS011;59475;52.464;13.590;2023-05-10T12:30:29;5.43;;;1.95;;
71626;SDS011;59475;52.464;13.590;2023-05-10T12:32:59;4.67;;;1.90;;
71626;SDS011;59475;52.464;13.590;2023-05-10T12:35:26;7.43;;;2.13;;
71626;SDS011;59475;52.464;13.590;2023-05-10T12:37:54;10.13;;;2.40;;
71626;SDS011;59475;52.464;13.590;2023-05-10T12:40:20;4.53;;;1.93;;
71626;SDS011;59475;52.464;13.590;2023-05-10T12:42:45;3.13;;;1.80;;
71626;SDS011;59475;52.464;13.590;2023-05-10T12:45:11;3.13;;;2.00;;
71626;SDS011;59475;52.464;13.590;2023-05-10T12:47:37;5.28;;;2.00;;
71626;SDS011;59475;52.464;13.590;2023-05-10T12:50:03;8.57;;;1.73;;
71626;SDS011;59475;52.464;13.590;2023-05-10T12:52:29;4.30;;;2.10;;
71626;SDS011;59475;52.464;13.590;2023-05-10T12:54:56;2.90;;;1.50;;
71626;SDS011;59475;52.464;13.590;2023-05-10T12:57:22;4.00;;;1.77;;
71626;SDS011;59475;52.464;13.590;2023-05-10T12:59:47;4.57;;;1.80;;
71626;SDS011;59475;52.464;13.590;2023-05-10T13:02:13;5.83;;;2.10;;
71626;SDS011;59475;52.464;13.590;2023-05-10T13:04:39;4.57;;;1.90;;
71626;SDS011;59475;52.464;13.590;2023-05-10T13:07:08;4.30;;;1.87;;
71626;SDS011;59475;52.464;13.590;2023-05-10T13:09:34;3.70;;;1.97;;
71626;SDS011;59475;52.464;13.590;2023-05-10T13:12:00;4.88;;;1.65;;
71626;SDS011;59475;52.464;13.590;2023-05-10T13:14:26;5.03;;;2.13;;
71626;SDS011;59475;52.464;13.590;2023-05-10T13:16:51;6.05;;;2.00;;
71626;SDS011;59475;52.464;13.590;2023-05-10T13:19:17;5.37;;;1.90;;
71626;SDS011;59475;52.464;13.590;2023-05-10T13:21:43;3.53;;;1.87;;
71626;SDS011;59475;52.464;13.590;2023-05-10T13:24:09;2.03;;;1.70;;
71626;SDS011;59475;52.464;13.590;2023-05-10T13:26:35;3.40;;;1.80;;
71626;SDS011;59475;52.464;13.590;2023-05-10T13:29:01;5.47;;;1.85;;
71626;SDS011;59475;52.464;13.590;2023-05-10T13:31:27;2.60;;;1.80;;
71626;SDS011;59475;52.464;13.590;2023-05-10T13:33:52;2.67;;;1.90;;
71626;SDS011;59475;52.464;13.590;2023-05-10T13:36:18;2.50;;;1.80;;
71626;SDS011;59475;52.464;13.590;2023-05-10T13:38:43;3.53;;;1.83;;
71626;SDS011;59475;52.464;13.590;2023-05-10T13:41:08;4.87;;;2.00;;
71626;SDS011;59475;52.464;13.590;2023-05-10T13:43:34;3.80;;;1.92;;
71626;SDS011;59475;52.464;13.590;2023-05-10T13:46:00;2.93;;;1.90;;
71626;SDS011;59475;52.464;13.590;2023-05-10T13:48:25;4.20;;;1.90;;
71626;SDS011;59475;52.464;13.590;2023-05-10T13:50:51;3.45;;;1.45;;
71626;SDS011;59475;52.464;13.590;2023-05-10T13:53:17;3.60;;;1.70;;
71626;SDS011;59475;52.464;13.590;2023-05-10T13:55:42;6.88;;;2.03;;
71626;SDS011;59475;52.464;13.590;2023-05-10T13:58:07;3.70;;;2.00;;
71626;SDS011;59475;52.464;13.590;2023-05-10T14:00:33;3.03;;;1.53;;
71626;SDS011;59475;52.464;13.590;2023-05-10T14:02:58;6.10;;;2.03;;
71626;SDS011;59475;52.464;13.590;2023-05-10T14:05:24;3.80;;;1.60;;
71626;SDS011;59475;52.464;13.590;2023-05-10T14:07:49;3.43;;;1.70;;
71626;SDS011;59475;52.464;13.590;2023-05-10T14:10:15;4.68;;;2.03;;
71626;SDS011;59475;52.464;13.590;2023-05-10T14:12:41;9.63;;;1.53;;
71626;SDS011;59475;52.464;13.590;2023-05-10T14:15:06;5.43;;;2.00;;
71626;SDS011;59475;52.464;13.590;2023-05-10T14:17:33;6.28;;;1.80;;
71626;SDS011;59475;52.464;13.590;2023-05-10T14:19:58;5.57;;;2.10;;
71626;SDS011;59475;52.464;13.590;2023-05-10T14:22:23;5.57;;;1.90;;
71626;SDS011;59475;52.464;13.590;2023-05-10T14:24:49;4.40;;;1.40;;
71626;SDS011;59475;52.464;13.590;2023-05-10T14:27:15;3.90;;;1.80;;
71626;SDS011;59475;52.464;13.590;2023-05-10T14:29:40;3.70;;;1.85;;
71626;SDS011;59475;52.464;13.590;2023-05-10T14:32:06;4.90;;;2.20;;
71626;SDS011;59475;52.464;13.590;2023-05-10T14:34:32;2.30;;;1.98;;
71626;SDS011;59475;52.464;13.590;2023-05-10T14:36:57;3.17;;;1.73;;
71626;SDS011;59475;52.464;13.590;2023-05-10T14:39:23;3.80;;;1.92;;
71626;SDS011;59475;52.464;13.590;2023-05-10T14:41:48;5.17;;;2.23;;
71626;SDS011;59475;52.464;13.590;2023-05-10T14:44:16;2.33;;;1.70;;
71626;SDS011;59475;52.464;13.590;2023-05-10T14:46:41;3.77;;;2.03;;
71626;SDS011;59475;52.464;13.590;2023-05-10T14:49:07;2.23;;;1.80;;
71626;SDS011;59475;52.464;13.590;2023-05-10T14:51:32;4.10;;;2.05;;
71626;SDS011;59475;52.464;13.590;2023-05-10T14:53:58;4.43;;;2.00;;
71626;SDS011;59475;52.464;13.590;2023-05-10T14:56:23;5.40;;;2.07;;
71626;SDS011;59475;52.464;13.590;2023-05-10T14:58:50;3.50;;;1.92;;
71626;SDS011;59475;52.464;13.590;2023-05-10T15:01:16;1.98;;;1.77;;
71626;SDS011;59475;52.464;13.590;2023-05-10T15:03:41;3.20;;;1.87;;
71626;SDS011;59475;52.464;13.590;2023-05-10T15:06:07;2.17;;;1.80;;
71626;SDS011;59475;52.464;13.590;2023-05-10T15:08:33;3.22;;;1.88;;
71626;SDS011;59475;52.464;13.590;2023-05-10T15:10:59;7.23;;;1.60;;
71626;SDS011;59475;52.464;13.590;2023-05-10T15:13:24;8.03;;;2.10;;